createdAt,value
2023-05-16T00:00:11.583Z,11.39
2023-05-16T00:01:11.686Z,11.39
2023-05-16T00:02:11.587Z,11.39
2023-05-16T00:03:11.618Z,11.38
2023-05-16T00:04:11.682Z,11.38
2023-05-16T00:05:11.515Z,11.38
2023-05-16T00:06:11.516Z,11.36
2023-05-16T00:07:11.516Z,11.36
2023-05-16T00:08:11.509Z,11.35
2023-05-16T00:09:11.477Z,11.38
2023-05-16T00:10:11.463Z,11.36
2023-05-16T00:11:11.450Z,11.38
2023-05-16T00:12:11.461Z,11.38
2023-05-16T00:13:11.434Z,11.38
2023-05-16T00:14:11.425Z,11.36
2023-05-16T00:15:11.399Z,11.36
2023-05-16T00:16:11.445Z,11.36
2023-05-16T00:17:11.808Z,11.36
2023-05-16T00:18:11.452Z,11.38
2023-05-16T00:19:11.377Z,11.36
2023-05-16T00:20:11.342Z,11.32
2023-05-16T00:21:11.334Z,11.32
2023-05-16T00:22:11.340Z,11.31
2023-05-16T00:23:11.333Z,11.31
2023-05-16T00:24:11.305Z,11.31
2023-05-16T00:25:11.300Z,11.28
2023-05-16T00:26:11.315Z,11.27
2023-05-16T00:27:11.314Z,11.27
2023-05-16T00:28:11.264Z,11.27
2023-05-16T00:29:11.244Z,11.25
2023-05-16T00:30:11.245Z,11.25
2023-05-16T00:31:11.232Z,11.24
2023-05-16T00:32:11.365Z,11.25
2023-05-16T00:33:11.266Z,11.25
2023-05-16T00:34:11.218Z,11.24
2023-05-16T00:35:11.200Z,11.21
2023-05-16T00:36:11.212Z,11.24
2023-05-16T00:37:11.171Z,11.24
2023-05-16T00:38:11.147Z,11.21
2023-05-16T00:39:11.138Z,11.21
2023-05-16T00:40:11.158Z,11.21
2023-05-16T00:41:11.125Z,11.21
2023-05-16T00:42:11.122Z,11.20
2023-05-16T00:43:11.131Z,11.21
2023-05-16T00:44:11.078Z,11.20
2023-05-16T00:45:11.075Z,11.17
2023-05-16T00:46:11.100Z,11.17
2023-05-16T00:47:11.086Z,11.16
2023-05-16T00:48:11.098Z,11.14
2023-05-16T00:49:11.046Z,11.16
2023-05-16T00:50:11.017Z,11.13
2023-05-16T00:51:11.022Z,11.13
2023-05-16T00:52:11.012Z,11.14
2023-05-16T00:53:11.001Z,11.13
2023-05-16T00:54:10.990Z,11.11
2023-05-16T00:55:10.962Z,11.13
2023-05-16T00:56:10.973Z,11.13
2023-05-16T00:57:10.958Z,11.11
2023-05-16T00:58:10.923Z,11.11
2023-05-16T00:59:10.911Z,11.11
2023-05-16T01:00:10.952Z,11.11
2023-05-16T01:01:10.936Z,11.11
2023-05-16T01:02:10.920Z,11.11
2023-05-16T01:03:11.034Z,11.10
2023-05-16T01:04:10.951Z,11.11
2023-05-16T01:05:10.872Z,11.11
2023-05-16T01:06:10.833Z,11.10
2023-05-16T01:07:10.858Z,11.10
2023-05-16T01:08:10.825Z,11.11
2023-05-16T01:09:10.800Z,11.11
2023-05-16T01:10:10.821Z,11.13
2023-05-16T01:11:10.779Z,11.14
2023-05-16T01:12:10.767Z,11.14
2023-05-16T01:13:10.769Z,11.13
2023-05-16T01:14:10.768Z,11.13
2023-05-16T01:15:10.782Z,11.14
2023-05-16T01:16:10.815Z,11.16
2023-05-16T01:17:10.729Z,11.16
2023-05-16T01:18:10.712Z,11.13
2023-05-16T01:19:10.757Z,11.13
2023-05-16T01:20:10.722Z,11.13
2023-05-16T01:21:10.668Z,11.13
2023-05-16T01:22:10.650Z,11.13
2023-05-16T01:23:10.677Z,11.11
2023-05-16T01:24:10.680Z,11.13
2023-05-16T01:25:10.623Z,11.11
2023-05-16T01:26:10.607Z,11.10
2023-05-16T01:27:11.658Z,11.10
2023-05-16T01:28:10.604Z,11.10
2023-05-16T01:29:10.591Z,11.10
2023-05-16T01:30:10.584Z,11.10
2023-05-16T01:31:10.586Z,11.10
2023-05-16T01:32:10.533Z,11.10
2023-05-16T01:33:10.718Z,11.09
2023-05-16T01:34:10.541Z,11.09
2023-05-16T01:35:10.525Z,11.09
2023-05-16T01:36:10.506Z,11.07
2023-05-16T01:37:10.489Z,11.03
2023-05-16T01:38:10.481Z,11.01
2023-05-16T01:39:10.472Z,11.01
2023-05-16T01:40:10.479Z,10.99
2023-05-16T01:41:10.449Z,10.99
2023-05-16T01:42:10.457Z,10.99
2023-05-16T01:43:10.440Z,10.98
2023-05-16T01:44:10.417Z,10.98
2023-05-16T01:45:10.396Z,10.96
2023-05-16T01:46:10.448Z,10.95
2023-05-16T01:47:10.515Z,10.95
2023-05-16T01:48:10.507Z,10.94
2023-05-16T01:49:10.364Z,10.94
2023-05-16T01:50:10.367Z,10.92
2023-05-16T01:51:10.352Z,10.91
2023-05-16T01:52:10.336Z,10.92
2023-05-16T01:53:10.328Z,10.94
2023-05-16T01:54:10.301Z,10.92
2023-05-16T01:55:11.240Z,10.94
2023-05-16T01:56:10.276Z,10.91
2023-05-16T01:57:10.281Z,10.91
2023-05-16T01:58:10.256Z,10.92
2023-05-16T01:59:10.244Z,10.91
2023-05-16T02:00:10.235Z,10.91
2023-05-16T02:01:10.265Z,10.88
2023-05-16T02:02:10.221Z,10.86
2023-05-16T02:03:10.240Z,10.86
2023-05-16T02:04:10.391Z,10.84
2023-05-16T02:05:10.170Z,10.84
2023-05-16T02:06:10.182Z,10.86
2023-05-16T02:07:10.240Z,10.84
2023-05-16T02:08:10.135Z,10.83
2023-05-16T02:09:10.161Z,10.84
2023-05-16T02:10:10.139Z,10.83
2023-05-16T02:11:10.112Z,10.83
2023-05-16T02:12:10.100Z,10.80
2023-05-16T02:13:10.126Z,10.80
2023-05-16T02:14:10.073Z,10.80
2023-05-16T02:15:10.072Z,10.80
2023-05-16T02:16:10.085Z,10.78
2023-05-16T02:17:10.156Z,10.77
2023-05-16T02:18:10.063Z,10.78
2023-05-16T02:19:10.179Z,10.78
2023-05-16T02:20:10.017Z,10.78
2023-05-16T02:21:10.017Z,10.77
2023-05-16T02:22:09.981Z,10.76
2023-05-16T02:23:09.970Z,10.77
2023-05-16T02:24:09.961Z,10.77
2023-05-16T02:25:09.968Z,10.77
2023-05-16T02:26:09.932Z,10.77
2023-05-16T02:27:09.922Z,10.76
2023-05-16T02:28:09.914Z,10.76
2023-05-16T02:29:09.948Z,10.76
2023-05-16T02:30:09.906Z,10.76
2023-05-16T02:31:09.961Z,10.76
2023-05-16T02:32:09.904Z,10.76
2023-05-16T02:33:09.986Z,10.76
2023-05-16T02:34:09.874Z,10.76
2023-05-16T02:35:09.857Z,10.76
2023-05-16T02:36:09.857Z,10.76
2023-05-16T02:37:12.485Z,10.77
2023-05-16T02:38:09.821Z,10.76
2023-05-16T02:39:09.824Z,10.76
2023-05-16T02:40:09.783Z,10.76
2023-05-16T02:41:09.799Z,10.74
2023-05-16T02:42:09.780Z,10.74
2023-05-16T02:43:09.784Z,10.74
2023-05-16T02:44:09.752Z,10.74
2023-05-16T02:45:09.739Z,10.76
2023-05-16T02:46:09.802Z,10.76
2023-05-16T02:47:09.734Z,10.73
2023-05-16T02:48:09.729Z,10.74
2023-05-16T02:49:09.700Z,10.74
2023-05-16T02:50:09.672Z,10.74
2023-05-16T02:51:09.694Z,10.74
2023-05-16T02:52:09.658Z,10.74
2023-05-16T02:53:09.648Z,10.77
2023-05-16T02:54:09.658Z,10.77
2023-05-16T02:55:21.654Z,10.78
2023-05-16T02:56:09.655Z,10.77
2023-05-16T02:57:09.597Z,10.80
2023-05-16T02:58:09.614Z,10.80
2023-05-16T02:59:09.588Z,10.78
2023-05-16T03:00:09.560Z,10.78
2023-05-16T03:01:09.646Z,10.80
2023-05-16T03:02:09.612Z,10.78
2023-05-16T03:03:09.722Z,10.78
2023-05-16T03:04:09.633Z,10.80
2023-05-16T03:05:09.516Z,10.77
2023-05-16T03:06:09.496Z,10.78
2023-05-16T03:07:09.487Z,10.77
2023-05-16T03:08:09.484Z,10.77
2023-05-16T03:09:09.480Z,10.77
2023-05-16T03:10:09.467Z,10.76
2023-05-16T03:11:09.450Z,10.76
2023-05-16T03:12:09.452Z,10.76
2023-05-16T03:13:09.450Z,10.76
2023-05-16T03:14:09.440Z,10.76
2023-05-16T03:15:09.413Z,10.76
2023-05-16T03:16:09.464Z,10.74
2023-05-16T03:17:09.397Z,10.74
2023-05-16T03:18:09.444Z,10.76
2023-05-16T03:19:09.391Z,10.76
2023-05-16T03:20:09.362Z,10.74
2023-05-16T03:21:09.347Z,10.74
2023-05-16T03:22:09.321Z,10.73
2023-05-16T03:23:09.316Z,10.71
2023-05-16T03:24:09.335Z,10.73
2023-05-16T03:25:09.297Z,10.71
2023-05-16T03:26:09.292Z,10.70
2023-05-16T03:27:11.161Z,10.68
2023-05-16T03:28:09.259Z,10.70
2023-05-16T03:29:09.251Z,10.68
2023-05-16T03:30:09.269Z,10.68
2023-05-16T03:31:09.291Z,10.66
2023-05-16T03:32:09.295Z,10.66
2023-05-16T03:33:09.262Z,10.65
2023-05-16T03:34:09.176Z,10.65
2023-05-16T03:35:09.182Z,10.63
2023-05-16T03:36:09.205Z,10.65
2023-05-16T03:37:09.173Z,10.65
2023-05-16T03:38:09.144Z,10.66
2023-05-16T03:39:09.220Z,10.63
2023-05-16T03:40:09.140Z,10.66
2023-05-16T03:41:09.153Z,10.65
2023-05-16T03:42:09.100Z,10.66
2023-05-16T03:43:09.094Z,10.66
2023-05-16T03:44:09.073Z,10.65
2023-05-16T03:45:09.086Z,10.63
2023-05-16T03:46:09.196Z,10.63
2023-05-16T03:47:09.039Z,10.62
2023-05-16T03:48:09.158Z,10.62
2023-05-16T03:49:09.016Z,10.60
2023-05-16T03:50:09.036Z,10.60
2023-05-16T03:51:09.005Z,10.58
2023-05-16T03:52:08.984Z,10.53
2023-05-16T03:53:09.034Z,10.53
2023-05-16T03:54:08.977Z,10.53
2023-05-16T03:55:08.968Z,10.53
2023-05-16T03:56:08.936Z,10.51
2023-05-16T03:57:08.941Z,10.52
2023-05-16T03:58:08.948Z,10.52
2023-05-16T03:59:08.923Z,10.47
2023-05-16T04:00:08.917Z,10.47
2023-05-16T04:01:08.911Z,10.51
2023-05-16T04:02:08.918Z,10.47
2023-05-16T04:03:08.976Z,10.52
2023-05-16T04:04:08.866Z,10.53
2023-05-16T04:05:08.921Z,10.53
2023-05-16T04:06:08.916Z,10.53
2023-05-16T04:07:08.827Z,10.53
2023-05-16T04:08:08.845Z,10.52
2023-05-16T04:09:08.808Z,10.52
2023-05-16T04:10:08.823Z,10.51
2023-05-16T04:11:08.777Z,10.51
2023-05-16T04:12:08.800Z,10.52
2023-05-16T04:13:08.779Z,10.52
2023-05-16T04:14:09.231Z,10.47
2023-05-16T04:15:08.737Z,10.44
2023-05-16T04:16:08.723Z,10.44
2023-05-16T04:17:08.853Z,10.44
2023-05-16T04:18:08.760Z,10.44
2023-05-16T04:19:08.754Z,10.44
2023-05-16T04:20:08.677Z,10.46
2023-05-16T04:21:08.683Z,10.47
2023-05-16T04:22:08.649Z,10.47
2023-05-16T04:23:08.662Z,10.52
2023-05-16T04:24:08.644Z,10.52
2023-05-16T04:25:08.629Z,10.52
2023-05-16T04:26:08.694Z,10.53
2023-05-16T04:27:08.627Z,10.53
2023-05-16T04:28:08.648Z,10.55
2023-05-16T04:29:08.579Z,10.56
2023-05-16T04:30:08.571Z,10.58
2023-05-16T04:31:08.700Z,10.58
2023-05-16T04:32:08.563Z,10.58
2023-05-16T04:33:08.605Z,10.56
2023-05-16T04:34:08.539Z,10.55
2023-05-16T04:35:08.552Z,10.52
2023-05-16T04:36:08.605Z,10.53
2023-05-16T04:37:08.783Z,10.55
2023-05-16T04:38:08.523Z,10.55
2023-05-16T04:39:09.737Z,10.56
2023-05-16T04:40:08.461Z,10.56
2023-05-16T04:41:08.452Z,10.55
2023-05-16T04:42:08.513Z,10.53
2023-05-16T04:43:08.451Z,10.53
2023-05-16T04:44:08.404Z,10.53
2023-05-16T04:45:08.405Z,10.56
2023-05-16T04:46:08.414Z,10.58
2023-05-16T04:47:08.402Z,10.59
2023-05-16T04:48:08.407Z,10.58
2023-05-16T04:49:08.371Z,10.59
2023-05-16T04:50:09.030Z,10.60
2023-05-16T04:51:08.352Z,10.62
2023-05-16T04:52:08.343Z,10.63
2023-05-16T04:53:08.331Z,10.63
2023-05-16T04:54:08.306Z,10.63
2023-05-16T04:55:08.324Z,10.65
2023-05-16T04:56:08.294Z,10.63
2023-05-16T04:57:08.291Z,10.66
2023-05-16T04:58:08.288Z,10.66
2023-05-16T04:59:09.065Z,10.66
2023-05-16T05:00:08.246Z,10.63
2023-05-16T05:01:08.235Z,10.65
2023-05-16T05:02:08.321Z,10.65
2023-05-16T05:03:08.270Z,10.65
2023-05-16T05:04:08.205Z,10.63
2023-05-16T05:05:08.207Z,10.65
2023-05-16T05:06:08.183Z,10.66
2023-05-16T05:07:08.189Z,10.68
2023-05-16T05:08:08.151Z,10.68
2023-05-16T05:09:08.169Z,10.66
2023-05-16T05:10:08.170Z,10.68
2023-05-16T05:11:08.114Z,10.65
2023-05-16T05:12:08.098Z,10.65
2023-05-16T05:13:08.091Z,10.65
2023-05-16T05:14:08.105Z,10.63
2023-05-16T05:15:08.071Z,10.62
2023-05-16T05:16:08.087Z,10.62
2023-05-16T05:17:08.095Z,10.62
2023-05-16T05:18:08.336Z,10.62
2023-05-16T05:19:08.163Z,10.62
2023-05-16T05:20:08.034Z,10.63
2023-05-16T05:21:08.012Z,10.65
2023-05-16T05:22:07.993Z,10.63
2023-05-16T05:23:08.009Z,10.63
2023-05-16T05:24:07.979Z,10.65
2023-05-16T05:25:07.953Z,10.62
2023-05-16T05:26:07.984Z,10.60
2023-05-16T05:27:07.936Z,10.60
2023-05-16T05:28:07.984Z,10.58
2023-05-16T05:29:07.944Z,10.55
2023-05-16T05:30:07.918Z,10.55
2023-05-16T05:31:07.922Z,10.52
2023-05-16T05:32:08.016Z,10.55
2023-05-16T05:33:07.908Z,10.56
2023-05-16T05:34:07.880Z,10.56
2023-05-16T05:35:07.845Z,10.59
2023-05-16T05:36:07.837Z,10.60
2023-05-16T05:37:07.872Z,10.62
2023-05-16T05:38:09.260Z,10.58
2023-05-16T05:39:07.862Z,10.58
2023-05-16T05:40:07.790Z,10.58
2023-05-16T05:41:07.794Z,10.59
2023-05-16T05:42:07.789Z,10.55
2023-05-16T05:43:07.782Z,10.56
2023-05-16T05:44:07.745Z,10.53
2023-05-16T05:45:07.736Z,10.53
2023-05-16T05:46:07.753Z,10.53
2023-05-16T05:47:09.740Z,10.55
2023-05-16T05:48:07.844Z,10.47
2023-05-16T05:49:07.679Z,10.47
2023-05-16T05:50:07.680Z,10.46
2023-05-16T05:51:07.698Z,10.47
2023-05-16T05:52:07.702Z,10.52
2023-05-16T05:53:07.646Z,10.51
2023-05-16T05:54:07.650Z,10.51
2023-05-16T05:55:08.151Z,10.55
2023-05-16T05:56:07.610Z,10.58
2023-05-16T05:57:07.669Z,10.58
2023-05-16T05:58:07.592Z,10.60
2023-05-16T05:59:07.630Z,10.62
2023-05-16T06:00:07.589Z,10.65
2023-05-16T06:01:07.546Z,10.71
2023-05-16T06:02:07.747Z,10.74
2023-05-16T06:03:07.582Z,10.76
2023-05-16T06:04:07.536Z,10.78
2023-05-16T06:05:07.605Z,10.83
2023-05-16T06:06:07.570Z,10.88
2023-05-16T06:07:07.541Z,10.92
2023-05-16T06:08:07.478Z,10.94
2023-05-16T06:09:07.477Z,10.94
2023-05-16T06:10:07.464Z,10.98
2023-05-16T06:11:07.458Z,11.01
2023-05-16T06:12:07.448Z,11.01
2023-05-16T06:13:07.427Z,11.01
2023-05-16T06:14:07.413Z,11.03
2023-05-16T06:15:07.404Z,11.06
2023-05-16T06:16:09.486Z,11.11
2023-05-16T06:17:07.485Z,11.17
2023-05-16T06:18:07.426Z,11.25
2023-05-16T06:19:07.436Z,11.31
2023-05-16T06:20:07.377Z,11.35
2023-05-16T06:21:07.390Z,11.38
2023-05-16T06:22:15.669Z,11.43
2023-05-16T06:23:07.316Z,11.36
2023-05-16T06:24:07.387Z,11.36
2023-05-16T06:25:07.300Z,11.43
2023-05-16T06:26:07.280Z,11.46
2023-05-16T06:27:07.262Z,11.50
2023-05-16T06:28:07.287Z,11.56
2023-05-16T06:29:07.253Z,11.59
2023-05-16T06:30:07.238Z,11.61
2023-05-16T06:31:07.350Z,11.65
2023-05-16T06:32:07.226Z,11.54
2023-05-16T06:33:07.254Z,11.56
2023-05-16T06:34:09.529Z,11.54
2023-05-16T06:35:07.198Z,11.53
2023-05-16T06:36:07.179Z,11.54
2023-05-16T06:37:07.154Z,11.57
2023-05-16T06:38:07.724Z,11.65
2023-05-16T06:39:15.192Z,11.71
2023-05-16T06:40:07.300Z,11.74
2023-05-16T06:41:15.201Z,11.77
2023-05-16T06:42:07.099Z,11.80
2023-05-16T06:43:07.085Z,11.85
2023-05-16T06:44:07.159Z,11.87
2023-05-16T06:45:15.231Z,11.83
2023-05-16T06:46:07.146Z,11.85
2023-05-16T06:47:07.087Z,11.87
2023-05-16T06:48:07.198Z,11.75
2023-05-16T06:49:07.051Z,11.62
2023-05-16T06:50:07.040Z,11.59
2023-05-16T06:51:07.052Z,11.57
2023-05-16T06:52:07.001Z,11.57
2023-05-16T06:53:07.022Z,11.56
2023-05-16T06:54:07.035Z,11.53
2023-05-16T06:55:07.013Z,11.49
2023-05-16T06:56:07.606Z,11.36
2023-05-16T06:57:06.942Z,11.35
2023-05-16T06:58:06.934Z,11.36
2023-05-16T06:59:06.923Z,11.39
2023-05-16T07:00:06.910Z,11.43
2023-05-16T07:01:06.910Z,11.46
2023-05-16T07:02:06.899Z,11.52
2023-05-16T07:03:06.980Z,11.57
2023-05-16T07:04:06.987Z,11.64
2023-05-16T07:05:06.857Z,11.67
2023-05-16T07:06:06.840Z,11.74
2023-05-16T07:07:06.844Z,11.78
2023-05-16T07:08:08.042Z,11.82
2023-05-16T07:09:07.066Z,11.77
2023-05-16T07:10:09.412Z,11.80
2023-05-16T07:11:06.848Z,11.75
2023-05-16T07:12:06.803Z,11.70
2023-05-16T07:13:06.802Z,11.72
2023-05-16T07:14:08.841Z,11.75
2023-05-16T07:15:08.501Z,11.77
2023-05-16T07:16:06.770Z,11.78
2023-05-16T07:17:06.813Z,11.75
2023-05-16T07:18:06.773Z,11.80
2023-05-16T07:19:06.780Z,11.85
2023-05-16T07:20:06.696Z,11.89
2023-05-16T07:21:06.690Z,11.93
2023-05-16T07:22:08.357Z,11.93
2023-05-16T07:23:07.683Z,11.93
2023-05-16T07:24:06.688Z,11.87
2023-05-16T07:25:06.635Z,11.85
2023-05-16T07:26:06.675Z,11.89
2023-05-16T07:27:08.070Z,11.89
2023-05-16T07:28:06.654Z,11.87
2023-05-16T07:29:06.605Z,11.78
2023-05-16T07:30:06.697Z,11.72
2023-05-16T07:31:06.659Z,11.65
2023-05-16T07:32:06.628Z,11.68
2023-05-16T07:33:06.615Z,11.72
2023-05-16T07:34:09.237Z,11.77
2023-05-16T07:35:06.557Z,11.82
2023-05-16T07:36:16.835Z,11.85
2023-05-16T07:37:07.884Z,11.87
2023-05-16T07:38:08.390Z,11.83
2023-05-16T07:39:07.267Z,11.71
2023-05-16T07:40:06.477Z,11.62
2023-05-16T07:41:06.464Z,11.59
2023-05-16T07:42:06.679Z,11.56
2023-05-16T07:43:06.452Z,11.50
2023-05-16T07:44:06.654Z,11.53
2023-05-16T07:45:08.352Z,11.56
2023-05-16T07:46:06.461Z,11.57
2023-05-16T07:47:08.489Z,11.56
2023-05-16T07:48:06.415Z,11.56
2023-05-16T07:49:06.357Z,11.53
2023-05-16T07:50:06.395Z,11.50
2023-05-16T07:51:06.330Z,11.47
2023-05-16T07:52:06.488Z,11.46
2023-05-16T07:53:08.620Z,11.44
2023-05-16T07:54:07.086Z,11.34
2023-05-16T07:55:08.107Z,11.29
2023-05-16T07:56:06.696Z,11.27
2023-05-16T07:57:07.998Z,11.27
2023-05-16T07:58:08.014Z,11.31
2023-05-16T07:59:06.305Z,11.32
2023-05-16T08:00:06.260Z,11.35
2023-05-16T08:01:06.358Z,11.39
2023-05-16T08:02:06.243Z,11.43
2023-05-16T08:03:06.330Z,11.46
2023-05-16T08:04:06.315Z,11.47
2023-05-16T08:05:06.287Z,11.50
2023-05-16T08:06:06.348Z,11.53
2023-05-16T08:07:06.489Z,11.53
2023-05-16T08:08:05.183Z,11.52
2023-05-16T08:09:06.277Z,11.52
2023-05-16T08:10:06.193Z,11.52
2023-05-16T08:11:06.199Z,11.54
2023-05-16T08:12:06.179Z,11.54
2023-05-16T08:13:06.947Z,11.57
2023-05-16T08:14:08.948Z,11.61
2023-05-16T08:15:07.376Z,11.62
2023-05-16T08:16:06.657Z,11.64
2023-05-16T08:17:06.065Z,11.67
2023-05-16T08:20:39.274Z,11.74
2023-05-16T08:21:39.293Z,11.75
2023-05-16T08:22:39.297Z,11.80
2023-05-16T08:23:39.290Z,11.83
2023-05-16T08:26:08.057Z,11.83
2023-05-16T08:27:08.465Z,11.80
2023-05-16T08:28:08.448Z,11.75
2023-05-16T08:29:08.465Z,11.75
2023-05-16T08:30:08.429Z,11.77
2023-05-16T08:31:08.456Z,11.72
2023-05-16T08:32:08.403Z,11.74
2023-05-16T08:33:08.847Z,11.75
2023-05-16T08:35:26.267Z,11.85
2023-05-16T08:36:26.242Z,11.87
2023-05-16T08:37:26.907Z,11.90
2023-05-16T08:38:26.248Z,11.96
2023-05-16T08:40:24.791Z,11.97
2023-05-16T08:41:25.272Z,11.90
2023-05-16T08:42:25.138Z,11.96
2023-05-16T08:43:25.177Z,11.99
2023-05-16T08:44:35.290Z,12.02
2023-05-16T08:45:25.098Z,11.96
2023-05-16T08:46:25.129Z,11.94
2023-05-16T08:47:25.102Z,11.96
2023-05-16T08:48:25.127Z,12.01
2023-05-16T08:49:25.988Z,12.04
2023-05-16T08:52:32.428Z,12.12
2023-05-16T08:53:32.284Z,12.21
2023-05-16T08:54:32.359Z,12.27
2023-05-16T08:55:44.689Z,12.37
2023-05-16T08:56:32.306Z,12.44
2023-05-16T08:57:32.307Z,12.49
2023-05-16T08:58:32.274Z,12.59
2023-05-16T08:59:32.327Z,12.67
2023-05-16T09:00:32.331Z,12.78
2023-05-16T09:01:32.239Z,12.85
2023-05-16T09:04:32.756Z,13.02
2023-05-16T09:05:34.698Z,13.04
2023-05-16T09:06:32.883Z,13.07
2023-05-16T09:07:32.870Z,13.11
2023-05-16T09:08:32.880Z,13.00
2023-05-16T09:09:58.722Z,12.93
2023-05-16T09:10:32.931Z,12.89
2023-05-16T09:11:34.035Z,12.82
2023-05-16T09:12:49.717Z,12.78
2023-05-16T09:15:08.180Z,12.84
2023-05-16T09:16:08.344Z,12.87
2023-05-16T09:18:09.938Z,12.89
2023-05-16T09:19:10.079Z,12.88
2023-05-16T09:20:28.424Z,12.85
2023-05-16T09:21:09.984Z,12.88
2023-05-16T09:22:09.983Z,12.99
2023-05-16T09:23:21.434Z,13.11
2023-05-16T09:24:09.950Z,13.25
2023-05-16T09:25:18.378Z,13.33
2023-05-16T09:26:09.928Z,13.47
2023-05-16T09:27:27.532Z,13.56
2023-05-16T09:28:24.494Z,13.62
2023-05-16T09:29:09.919Z,13.74
2023-05-16T09:30:23.490Z,13.84
2023-05-16T09:31:09.925Z,13.98
2023-05-16T09:32:09.875Z,14.12
2023-05-16T09:33:09.917Z,14.20
2023-05-16T09:34:20.006Z,14.24
2023-05-16T09:35:09.833Z,14.32
2023-05-16T09:36:09.811Z,14.38
2023-05-16T09:37:09.795Z,14.39
2023-05-16T09:38:09.892Z,14.38
2023-05-16T09:39:26.276Z,14.34
2023-05-16T09:40:23.540Z,14.31
2023-05-16T09:41:10.870Z,14.01
2023-05-16T09:44:17.624Z,12.95
2023-05-16T09:45:17.622Z,12.84
2023-05-16T09:46:17.680Z,12.84
2023-05-16T09:47:17.643Z,12.71
2023-05-16T09:48:17.852Z,12.70
2023-05-16T09:51:27.624Z,12.67
2023-05-16T09:52:27.323Z,12.66
2023-05-16T09:53:44.683Z,12.66
2023-05-16T09:54:27.281Z,12.62
2023-05-16T09:55:27.445Z,12.66
2023-05-16T09:56:27.225Z,12.69
2023-05-16T09:57:27.731Z,12.69
2023-05-16T09:58:27.777Z,12.77
2023-05-16T09:59:27.218Z,12.81
2023-05-16T10:00:38.760Z,12.89
